Time;durP1;ratioP1;P1;durP2;ratioP2;P2;SDS_P1;SDS_P2;PMS_P1;PMS_P2;Temp;Humidity;BMP_temperature;BMP_pressure;BME280_temperature;BME280_humidity;BME280_pressure;Samples;Min_cycle;Max_cycle;Signal;HPM_P1;HPM_P2
2022/09/05 00:02:59;0.00;0.00;0.62;0.00;0.00;0.62;2.53;2.33;;;29.10;24.70;;;;;;2237659;62;20399;-63
2022/09/05 00:06:03;0.00;0.00;0.62;0.00;0.00;0.62;3.70;2.80;;;29.10;24.60;;;;;;2237632;62;20383;-63
2022/09/05 00:08:58;0.00;0.00;0.62;0.00;0.00;0.62;2.70;2.50;;;29.00;24.60;;;;;;2237986;62;20367;-64
2022/09/05 00:11:50;0.00;0.00;0.62;0.00;0.00;0.62;3.13;2.80;;;29.00;24.60;;;;;;2238049;62;20372;-64
2022/09/05 00:14:55;0.00;0.00;0.62;0.00;0.00;0.62;3.63;3.00;;;29.00;24.60;;;;;;2241210;62;20395;-64
2022/09/05 00:17:49;0.00;0.00;0.62;0.00;0.00;0.62;2.40;2.20;;;29.00;24.60;;;;;;2241646;62;20407;-62
2022/09/05 00:20:44;0.00;0.00;0.62;0.00;0.00;0.62;3.00;2.63;;;29.00;24.60;;;;;;2241492;62;20605;-63
2022/09/05 00:23:39;0.00;0.00;0.62;0.00;0.00;0.62;2.50;2.20;;;29.00;24.60;;;;;;2239544;61;20388;-63
2022/09/05 00:26:38;0.00;0.00;0.62;0.00;0.00;0.62;3.57;2.80;;;29.00;24.60;;;;;;2237951;62;20435;-64
2022/09/05 00:29:56;0.00;0.00;0.62;0.00;0.00;0.62;2.80;2.53;;;28.90;24.60;;;;;;2237617;62;20781;-63
2022/09/05 00:33:21;0.00;0.00;0.62;0.00;0.00;0.62;2.90;2.50;;;28.90;24.60;;;;;;2238373;61;20401;-64
2022/09/05 00:36:26;0.00;0.00;0.62;0.00;0.00;0.62;2.97;2.70;;;28.90;24.60;;;;;;2241214;62;20770;-62
2022/09/05 00:39:18;0.00;0.00;0.62;0.00;0.00;0.62;3.50;3.20;;;28.90;24.60;;;;;;2242317;62;20362;-62
2022/09/05 00:42:09;0.00;0.00;0.62;0.00;0.00;0.62;3.10;2.80;;;28.90;24.60;;;;;;2242127;62;20447;-62
2022/09/05 00:45:00;0.00;0.00;0.62;0.00;0.00;0.62;3.40;2.37;;;28.90;24.60;;;;;;2469274;54;20747;-62
2022/09/05 00:47:51;0.00;0.00;0.62;0.00;0.00;0.62;3.83;3.43;;;28.90;24.60;;;;;;2238325;62;20368;-63
2022/09/05 00:50:53;0.00;0.00;0.62;0.00;0.00;0.62;3.00;2.70;;;28.80;24.50;;;;;;2237837;62;20415;-63
2022/09/05 00:53:52;0.00;0.00;0.62;0.00;0.00;0.62;2.50;2.30;;;28.80;24.50;;;;;;2240509;61;20438;-62
2022/09/05 00:56:56;0.00;0.00;0.62;0.00;0.00;0.62;4.30;2.17;;;28.80;24.50;;;;;;2242081;62;20366;-64
2022/09/05 01:00:12;0.00;0.00;0.62;0.00;0.00;0.62;3.30;3.00;;;28.80;24.60;;;;;;2242219;62;20378;-62
2022/09/05 01:03:19;0.00;0.00;0.62;0.00;0.00;0.62;2.70;2.40;;;28.80;24.60;;;;;;2242943;61;20501;-64
2022/09/05 01:06:16;0.00;0.00;0.62;0.00;0.00;0.62;2.90;2.60;;;28.80;24.60;;;;;;2246065;61;20378;-65
2022/09/05 01:09:27;0.00;0.00;0.62;0.00;0.00;0.62;2.80;2.60;;;28.70;24.60;;;;;;2246160;61;20370;-61
2022/09/05 01:12:34;0.00;0.00;0.62;0.00;0.00;0.62;3.10;2.50;;;28.70;24.60;;;;;;2245929;61;20393;-66
2022/09/05 01:15:32;0.00;0.00;0.62;0.00;0.00;0.62;2.80;2.60;;;28.70;24.60;;;;;;2238528;62;20422;-65
2022/09/05 01:18:38;0.00;0.00;0.62;0.00;0.00;0.62;2.67;2.30;;;28.70;24.60;;;;;;2238479;62;20395;-63
2022/09/05 01:22:15;0.00;0.00;0.62;0.00;0.00;0.62;3.70;2.73;;;28.70;24.60;;;;;;2238096;62;20366;-62
2022/09/05 01:25:18;0.00;0.00;0.62;0.00;0.00;0.62;2.67;2.47;;;28.60;24.50;;;;;;2528131;46;20658;-64
2022/09/05 01:28:13;0.00;0.00;0.62;0.00;0.00;0.62;2.93;2.63;;;28.60;24.60;;;;;;2237820;62;20382;-62
2022/09/05 01:31:10;0.00;0.00;0.62;0.00;0.00;0.62;2.97;2.67;;;28.60;24.60;;;;;;2238199;62;20352;-62
2022/09/05 01:40:38;0.00;0.00;0.62;0.00;0.00;0.62;2.77;2.57;;;28.50;24.60;;;;;;2367099;56;20769;-62
2022/09/05 01:43:38;0.00;0.00;0.62;0.00;0.00;0.62;2.90;2.60;;;28.50;24.60;;;;;;2245609;62;20394;-62
2022/09/05 01:46:35;0.00;0.00;0.62;0.00;0.00;0.62;4.03;2.80;;;28.50;24.70;;;;;;2242358;62;20576;-63
2022/09/05 01:49:32;0.00;0.00;0.62;0.00;0.00;0.62;3.17;2.60;;;28.50;24.70;;;;;;2246598;61;20370;-62
2022/09/05 01:52:31;0.00;0.00;0.62;0.00;0.00;0.62;3.10;2.80;;;28.50;24.70;;;;;;2242372;62;20431;-63
2022/09/05 01:55:31;0.00;0.00;0.62;0.00;0.00;0.62;2.83;2.50;;;28.50;24.70;;;;;;2241439;62;20702;-62
2022/09/05 01:58:25;0.00;0.00;0.62;0.00;0.00;0.62;2.87;2.53;;;28.40;24.60;;;;;;2241980;62;20410;-62
2022/09/05 02:01:20;0.00;0.00;0.62;0.00;0.00;0.62;2.80;2.50;;;28.40;24.60;;;;;;2469063;54;20415;-64
2022/09/05 02:04:34;0.00;0.00;0.62;0.00;0.00;0.62;3.00;2.70;;;28.40;24.60;;;;;;2237886;62;20427;-64
2022/09/05 02:07:33;0.00;0.00;0.62;0.00;0.00;0.62;4.97;2.67;;;28.40;24.60;;;;;;2238357;62;20363;-61
2022/09/05 02:10:38;0.00;0.00;0.62;0.00;0.00;0.62;3.10;2.63;;;28.40;24.70;;;;;;2240065;61;20406;-62
2022/09/05 02:13:41;0.00;0.00;0.62;0.00;0.00;0.62;3.30;2.50;;;28.40;24.70;;;;;;2241937;62;20367;-65
2022/09/05 02:16:41;0.00;0.00;0.62;0.00;0.00;0.62;3.70;2.90;;;28.30;24.60;;;;;;2241610;62;20390;-63
2022/09/05 02:19:30;0.00;0.00;0.62;0.00;0.00;0.62;5.63;2.60;;;28.30;24.60;;;;;;2241683;61;20378;-61
2022/09/05 02:22:21;0.00;0.00;0.62;0.00;0.00;0.62;2.77;2.57;;;28.30;24.60;;;;;;2242259;62;20761;-62
2022/09/05 02:25:13;0.00;0.00;0.62;0.00;0.00;0.62;2.77;2.57;;;28.30;24.70;;;;;;2241270;62;20359;-63
2022/09/05 02:28:05;0.00;0.00;0.62;0.00;0.00;0.62;3.10;2.70;;;28.20;24.60;;;;;;2241942;62;20362;-63
2022/09/05 02:30:55;0.00;0.00;0.62;0.00;0.00;0.62;3.13;2.83;;;28.20;24.60;;;;;;2241819;62;20410;-63
2022/09/05 02:33:50;0.00;0.00;0.62;0.00;0.00;0.62;2.63;2.43;;;28.20;24.60;;;;;;2241841;62;20394;-62
2022/09/05 02:36:43;0.00;0.00;0.62;0.00;0.00;0.62;2.47;2.27;;;28.20;24.70;;;;;;2242113;62;20371;-62
2022/09/05 02:39:38;0.00;0.00;0.62;0.00;0.00;0.62;2.83;2.50;;;28.20;24.70;;;;;;2241333;61;20374;-64
2022/09/05 02:42:30;0.00;0.00;0.62;0.00;0.00;0.62;3.00;2.70;;;28.20;24.70;;;;;;2241820;62;20512;-65
2022/09/05 02:45:27;0.00;0.00;0.62;0.00;0.00;0.62;4.37;3.03;;;28.10;24.60;;;;;;2242131;62;20393;-64
2022/09/05 02:48:26;0.00;0.00;0.62;0.00;0.00;0.62;2.60;2.33;;;28.10;24.70;;;;;;2241571;62;20574;-62
2022/09/05 02:51:17;0.00;0.00;0.62;0.00;0.00;0.62;2.60;2.40;;;28.10;24.60;;;;;;2473741;54;20374;-63
2022/09/05 02:54:08;0.00;0.00;0.62;0.00;0.00;0.62;3.27;2.67;;;28.10;24.70;;;;;;2241310;62;20686;-62
2022/09/05 02:57:05;0.00;0.00;0.62;0.00;0.00;0.62;2.47;2.27;;;28.10;24.70;;;;;;2241728;62;20487;-62
2022/09/05 03:00:08;0.00;0.00;0.62;0.00;0.00;0.62;2.50;2.30;;;28.10;24.70;;;;;;2241847;61;20393;-65
2022/09/05 03:03:22;0.00;0.00;0.62;0.00;0.00;0.62;2.67;2.40;;;28.00;25.20;;;;;;2241444;62;20386;-65
2022/09/05 03:06:25;0.00;0.00;0.62;0.00;0.00;0.62;3.00;2.70;;;28.10;24.70;;;;;;2242142;62;20370;-65
2022/09/05 03:09:27;0.00;0.00;0.62;0.00;0.00;0.62;2.80;2.37;;;28.00;24.70;;;;;;2241140;61;20378;-62
2022/09/05 03:13:23;0.00;0.00;0.62;0.00;0.00;0.62;2.50;2.30;;;28.00;24.70;;;;;;2241971;62;20355;-64
2022/09/05 03:16:39;0.00;0.00;0.62;0.00;0.00;0.62;3.33;2.57;;;28.00;24.70;;;;;;2235783;61;20373;-64
2022/09/05 03:20:06;0.00;0.00;0.62;0.00;0.00;0.62;3.37;2.73;;;28.00;24.70;;;;;;2241555;62;20418;-61
2022/09/05 03:23:31;0.00;0.00;0.62;0.00;0.00;0.62;3.27;2.70;;;27.90;24.70;;;;;;2238154;61;20466;-62
2022/09/05 03:26:49;0.00;0.00;0.62;0.00;0.00;0.62;2.90;2.30;;;27.90;24.80;;;;;;2241795;62;20603;-64
2022/09/05 03:30:02;0.00;0.00;0.62;0.00;0.00;0.62;2.97;2.77;;;27.90;24.80;;;;;;2241884;61;20778;-60
2022/09/05 03:33:35;0.00;0.00;0.62;0.00;0.00;0.62;2.57;2.33;;;27.90;24.80;;;;;;2244124;61;20571;-62
2022/09/05 03:37:04;0.00;0.00;0.62;0.00;0.00;0.62;3.07;2.70;;;27.80;25.30;;;;;;2241921;62;20724;-62
2022/09/05 03:40:29;0.00;0.00;0.62;0.00;0.00;0.62;2.90;2.60;;;27.80;24.80;;;;;;2241103;61;20465;-64
2022/09/05 03:43:52;0.00;0.00;0.62;0.00;0.00;0.62;2.80;2.50;;;27.80;24.80;;;;;;2241905;62;20383;-62
2022/09/05 03:47:07;0.00;0.00;0.62;0.00;0.00;0.62;3.47;2.87;;;27.80;24.80;;;;;;2241223;62;20386;-62
2022/09/05 03:50:20;0.00;0.00;0.62;0.00;0.00;0.62;3.23;2.80;;;27.80;24.80;;;;;;2241494;61;20394;-64
2022/09/05 03:53:36;0.00;0.00;0.62;0.00;0.00;0.62;2.93;2.60;;;27.80;24.80;;;;;;2243436;61;20729;-62
2022/09/05 03:56:42;0.00;0.00;0.62;0.00;0.00;0.62;3.03;2.73;;;27.70;24.80;;;;;;2241326;62;20596;-63
2022/09/05 04:00:10;0.00;0.00;0.62;0.00;0.00;0.62;4.13;2.70;;;27.70;24.80;;;;;;2241753;62;20367;-64
2022/09/05 04:03:18;0.00;0.00;0.62;0.00;0.00;0.62;2.83;2.50;;;27.70;24.90;;;;;;2241471;62;20513;-62
2022/09/05 04:06:16;0.00;0.00;0.62;0.00;0.00;0.62;2.67;2.43;;;27.70;24.90;;;;;;2242003;62;20782;-63
2022/09/05 04:09:11;0.00;0.00;0.62;0.00;0.00;0.62;3.50;2.63;;;27.70;24.90;;;;;;2240613;61;20374;-63
2022/09/05 04:12:00;0.00;0.00;0.62;0.00;0.00;0.62;2.80;2.60;;;27.70;24.90;;;;;;2241567;62;20358;-62
2022/09/05 04:14:52;0.00;0.00;0.62;0.00;0.00;0.62;3.43;2.93;;;27.70;24.90;;;;;;2241554;62;20735;-64
2022/09/05 04:17:44;0.00;0.00;0.62;0.00;0.00;0.62;3.53;2.87;;;27.60;24.90;;;;;;2240821;62;20370;-64
2022/09/05 04:20:40;0.00;0.00;0.62;0.00;0.00;0.62;3.23;2.93;;;27.60;24.90;;;;;;2241718;62;20394;-63
2022/09/05 04:23:35;0.00;0.00;0.62;0.00;0.00;0.62;3.70;3.17;;;27.60;24.90;;;;;;2240775;62;20387;-64
2022/09/05 04:26:39;0.00;0.00;0.62;0.00;0.00;0.62;3.57;2.60;;;27.60;24.90;;;;;;2241507;62;20726;-63
2022/09/05 04:29:41;0.00;0.00;0.62;0.00;0.00;0.62;3.40;2.93;;;27.60;24.90;;;;;;2241497;62;20446;-62
2022/09/05 04:32:52;0.00;0.00;0.62;0.00;0.00;0.62;3.03;2.73;;;27.60;25.00;;;;;;2241415;62;20362;-63
2022/09/05 04:35:51;0.00;0.00;0.62;0.00;0.00;0.62;3.37;3.07;;;27.60;25.00;;;;;;2241707;62;20407;-64
2022/09/05 04:38:39;0.00;0.00;0.62;0.00;0.00;0.62;2.90;2.70;;;27.50;24.90;;;;;;2240771;61;20605;-63
2022/09/05 04:41:26;0.00;0.00;0.62;0.00;0.00;0.62;4.10;2.87;;;27.50;25.00;;;;;;2241325;62;20398;-63
2022/09/05 04:44:17;0.00;0.00;0.62;0.00;0.00;0.62;3.53;2.97;;;27.50;25.00;;;;;;2241509;62;20417;-62
2022/09/05 04:47:11;0.00;0.00;0.62;0.00;0.00;0.62;3.00;2.63;;;27.50;25.00;;;;;;2241105;62;20399;-63
2022/09/05 04:50:04;0.00;0.00;0.62;0.00;0.00;0.62;3.50;2.80;;;27.50;25.00;;;;;;2241662;61;20398;-63
2022/09/05 04:53:11;0.00;0.00;0.62;0.00;0.00;0.62;2.97;2.70;;;27.50;25.00;;;;;;2240836;62;20403;-64
2022/09/05 04:55:58;0.00;0.00;0.62;0.00;0.00;0.62;3.83;2.97;;;27.40;25.00;;;;;;2241349;62;20407;-64
2022/09/05 04:58:50;0.00;0.00;0.62;0.00;0.00;0.62;3.00;2.60;;;27.40;25.00;;;;;;2241557;62;20363;-62
2022/09/05 05:01:42;0.00;0.00;0.62;0.00;0.00;0.62;3.07;2.77;;;27.40;25.00;;;;;;2241219;62;20438;-64
2022/09/05 05:04:29;0.00;0.00;0.62;0.00;0.00;0.62;4.30;3.60;;;27.40;25.00;;;;;;2241887;62;20451;-63
2022/09/05 05:07:22;0.00;0.00;0.62;0.00;0.00;0.62;3.03;2.73;;;27.40;25.00;;;;;;2240322;62;20362;-64
2022/09/05 05:10:15;0.00;0.00;0.62;0.00;0.00;0.62;3.83;3.13;;;27.40;25.10;;;;;;2241302;62;20393;-63
2022/09/05 05:13:09;0.00;0.00;0.62;0.00;0.00;0.62;2.77;2.47;;;27.40;25.10;;;;;;2241675;62;20390;-65
2022/09/05 05:15:58;0.00;0.00;0.62;0.00;0.00;0.62;3.07;2.77;;;27.40;25.10;;;;;;2240819;62;20582;-62
2022/09/05 05:18:47;0.00;0.00;0.62;0.00;0.00;0.62;3.80;3.27;;;27.40;25.20;;;;;;2241329;61;20367;-62
2022/09/05 05:21:35;0.00;0.00;0.62;0.00;0.00;0.62;3.10;2.77;;;27.40;25.20;;;;;;2241504;62;20649;-64
2022/09/05 05:24:26;0.00;0.00;0.62;0.00;0.00;0.62;3.33;3.03;;;27.30;25.10;;;;;;2242042;62;20369;-60
2022/09/05 05:27:22;0.00;0.00;0.62;0.00;0.00;0.62;3.97;3.13;;;27.30;25.70;;;;;;2242300;61;20658;-62
2022/09/05 05:30:10;0.00;0.00;0.62;0.00;0.00;0.62;4.97;3.17;;;27.30;25.20;;;;;;2241247;61;20426;-62
2022/09/05 05:32:57;0.00;0.00;0.62;0.00;0.00;0.62;3.93;3.30;;;27.30;25.20;;;;;;2242104;62;20762;-64
2022/09/05 05:35:46;0.00;0.00;0.62;0.00;0.00;0.62;3.50;3.10;;;27.30;25.30;;;;;;2242336;62;20354;-64
2022/09/05 05:38:44;0.00;0.00;0.62;0.00;0.00;0.62;3.30;2.90;;;27.30;25.30;;;;;;2241908;62;20770;-64
2022/09/05 05:41:39;0.00;0.00;0.62;0.00;0.00;0.62;3.30;2.80;;;27.30;25.30;;;;;;2238139;62;20399;-62
2022/09/05 05:44:28;0.00;0.00;0.62;0.00;0.00;0.62;3.47;2.93;;;27.20;25.20;;;;;;2237601;62;20772;-64
2022/09/05 05:47:20;0.00;0.00;0.62;0.00;0.00;0.62;4.10;3.33;;;27.20;25.30;;;;;;2238034;62;20407;-62
2022/09/05 05:50:12;0.00;0.00;0.62;0.00;0.00;0.62;3.40;3.10;;;27.20;25.30;;;;;;2240801;61;20410;-63
2022/09/05 05:53:28;0.00;0.00;0.62;0.00;0.00;0.62;3.87;3.33;;;27.20;25.40;;;;;;2241488;62;20359;-61
2022/09/05 05:56:51;0.00;0.00;0.62;0.00;0.00;0.62;3.77;3.30;;;27.20;25.40;;;;;;2242078;62;20461;-61
2022/09/05 05:59:59;0.00;0.00;0.62;0.00;0.00;0.62;3.43;3.10;;;27.20;25.50;;;;;;2241232;61;20402;-68
2022/09/05 06:03:35;0.00;0.00;0.62;0.00;0.00;0.62;5.20;3.50;;;27.20;25.50;;;;;;2242007;62;20414;-63
2022/09/05 06:06:46;0.00;0.00;0.62;0.00;0.00;0.62;4.27;3.87;;;27.20;25.60;;;;;;2241703;62;20413;-73
2022/09/05 06:09:58;0.00;0.00;0.62;0.00;0.00;0.62;4.77;3.67;;;27.20;26.20;;;;;;2242937;61;20365;-75
2022/09/05 06:13:43;0.00;0.00;0.62;0.00;0.00;0.62;5.23;3.57;;;27.20;25.70;;;;;;2246220;61;20358;-71
2022/09/05 06:17:14;0.00;0.00;0.62;0.00;0.00;0.62;3.73;3.43;;;27.10;25.70;;;;;;2241906;62;20369;-72
2022/09/05 06:20:56;0.00;0.00;0.62;0.00;0.00;0.62;3.80;3.50;;;27.10;25.70;;;;;;2244272;61;20478;-74
2022/09/05 06:24:30;0.00;0.00;0.62;0.00;0.00;0.62;4.97;4.00;;;27.10;25.80;;;;;;2241613;62;20398;-71
2022/09/05 06:27:46;0.00;0.00;0.62;0.00;0.00;0.62;5.07;4.27;;;27.10;25.90;;;;;;2240373;61;20450;-69
2022/09/05 06:30:43;0.00;0.00;0.62;0.00;0.00;0.62;4.40;4.00;;;27.10;25.90;;;;;;2241518;61;20439;-70
2022/09/05 06:33:50;0.00;0.00;0.62;0.00;0.00;0.62;7.83;3.90;;;27.10;25.90;;;;;;2242274;62;20739;-69
2022/09/05 06:36:51;0.00;0.00;0.62;0.00;0.00;0.62;4.40;4.00;;;27.10;26.50;;;;;;2241086;62;20632;-71
2022/09/05 06:39:59;0.00;0.00;0.62;0.00;0.00;0.62;4.37;3.97;;;27.10;26.60;;;;;;2241633;62;20374;-68
2022/09/05 06:43:06;0.00;0.00;0.62;0.00;0.00;0.62;4.30;3.90;;;27.10;26.10;;;;;;2244193;61;20386;-78
2022/09/05 06:46:29;0.00;0.00;0.62;0.00;0.00;0.62;4.70;4.30;;;27.10;26.10;;;;;;2241809;62;20395;-74
2022/09/05 06:49:19;0.00;0.00;0.62;0.00;0.00;0.62;4.37;3.97;;;27.10;26.10;;;;;;2245019;61;20374;-76
2022/09/05 06:53:01;0.00;0.00;0.62;0.00;0.00;0.62;5.00;4.27;;;27.10;26.20;;;;;;2245396;61;20358;-65
2022/09/05 06:56:23;0.00;0.00;0.62;0.00;0.00;0.62;4.63;3.40;;;27.20;26.20;;;;;;2245992;61;20438;-70
2022/09/05 07:00:07;0.00;0.00;0.62;0.00;0.00;0.62;4.60;3.83;;;27.20;26.30;;;;;;2244324;61;20370;-71
2022/09/05 07:03:17;0.00;0.00;0.62;0.00;0.00;0.62;4.20;3.80;;;27.20;26.30;;;;;;2242114;62;20709;-66
2022/09/05 07:06:07;0.00;0.00;0.62;0.00;0.00;0.62;5.90;4.23;;;27.20;26.40;;;;;;2241186;62;20616;-71
2022/09/05 07:09:03;0.00;0.00;0.62;0.00;0.00;0.62;7.20;4.33;;;27.20;26.40;;;;;;2240775;61;20390;-66
2022/09/05 07:11:59;0.00;0.00;0.62;0.00;0.00;0.62;4.23;3.50;;;27.20;26.40;;;;;;2241945;62;20407;-67
2022/09/05 07:14:56;0.00;0.00;0.62;0.00;0.00;0.62;4.30;3.87;;;27.20;26.40;;;;;;2244752;61;20402;-63
2022/09/05 07:17:54;0.00;0.00;0.62;0.00;0.00;0.62;5.10;4.60;;;27.20;26.50;;;;;;2245881;61;20357;-64
2022/09/05 07:20:49;0.00;0.00;0.62;0.00;0.00;0.62;4.90;4.40;;;27.20;26.40;;;;;;2240859;61;20437;-65
2022/09/05 07:23:46;0.00;0.00;0.62;0.00;0.00;0.62;4.60;4.20;;;27.30;26.50;;;;;;2607040;46;20599;-71
2022/09/05 07:26:33;0.00;0.00;0.62;0.00;0.00;0.62;3.93;3.63;;;27.30;26.50;;;;;;2237737;62;20426;-66
2022/09/05 07:29:25;0.00;0.00;0.62;0.00;0.00;0.62;4.37;4.00;;;27.30;26.50;;;;;;2238247;61;20407;-67
2022/09/05 07:32:16;0.00;0.00;0.62;0.00;0.00;0.62;5.20;4.70;;;27.30;26.50;;;;;;2241827;62;20737;-67
2022/09/05 07:35:03;0.00;0.00;0.62;0.00;0.00;0.62;4.97;4.40;;;27.30;26.50;;;;;;2241369;62;20363;-73
2022/09/05 07:38:00;0.00;0.00;0.62;0.00;0.00;0.62;4.53;4.07;;;27.30;26.50;;;;;;2241716;62;20454;-66
2022/09/05 07:40:53;0.00;0.00;0.62;0.00;0.00;0.62;5.17;4.67;;;27.30;26.50;;;;;;2241658;62;20410;-69
2022/09/05 07:43:40;0.00;0.00;0.62;0.00;0.00;0.62;4.37;3.97;;;27.30;26.60;;;;;;2240882;62;20394;-68
2022/09/05 07:46:30;0.00;0.00;0.62;0.00;0.00;0.62;5.87;4.77;;;27.40;26.70;;;;;;2241640;62;20358;-69
2022/09/05 07:49:19;0.00;0.00;0.62;0.00;0.00;0.62;4.87;4.23;;;27.40;26.70;;;;;;2241647;61;20440;-65
2022/09/05 07:52:11;0.00;0.00;0.62;0.00;0.00;0.62;5.07;4.57;;;27.40;26.70;;;;;;2241384;62;20361;-63
2022/09/05 07:55:20;0.00;0.00;0.62;0.00;0.00;0.62;6.00;4.20;;;27.40;26.70;;;;;;2241964;62;20578;-69
2022/09/05 07:58:10;0.00;0.00;0.62;0.00;0.00;0.62;4.40;3.93;;;27.40;26.70;;;;;;2241085;62;20363;-69
2022/09/05 08:00:57;0.00;0.00;0.62;0.00;0.00;0.62;5.17;4.67;;;27.40;26.70;;;;;;2240955;62;20386;-66
2022/09/05 08:03:42;0.00;0.00;0.62;0.00;0.00;0.62;4.67;4.23;;;27.40;26.70;;;;;;2241964;62;20434;-63
2022/09/05 08:06:27;0.00;0.00;0.62;0.00;0.00;0.62;4.83;4.33;;;27.40;26.70;;;;;;2241309;62;20370;-66
2022/09/05 08:09:19;0.00;0.00;0.62;0.00;0.00;0.62;5.30;4.73;;;27.40;26.80;;;;;;2241717;61;20374;-69
2022/09/05 08:12:11;0.00;0.00;0.62;0.00;0.00;0.62;5.00;4.50;;;27.50;27.00;;;;;;2241151;62;20398;-72
2022/09/05 08:15:05;0.00;0.00;0.62;0.00;0.00;0.62;5.30;4.67;;;27.50;27.00;;;;;;2241607;62;20581;-69
2022/09/05 08:18:12;0.00;0.00;0.62;0.00;0.00;0.62;5.23;4.70;;;27.50;27.00;;;;;;2241974;62;20362;-66
2022/09/05 08:21:06;0.00;0.00;0.62;0.00;0.00;0.62;5.43;4.93;;;27.50;27.00;;;;;;2240955;62;20394;-70
2022/09/05 08:24:00;0.00;0.00;0.62;0.00;0.00;0.62;4.70;4.03;;;27.50;27.00;;;;;;2241693;62;20417;-70
2022/09/05 08:26:49;0.00;0.00;0.62;0.00;0.00;0.62;4.60;4.20;;;27.50;27.00;;;;;;2241460;62;20375;-66
2022/09/05 08:29:39;0.00;0.00;0.62;0.00;0.00;0.62;5.00;4.53;;;27.50;27.00;;;;;;2243074;61;20430;-70
2022/09/05 08:32:37;0.00;0.00;0.62;0.00;0.00;0.62;5.80;4.37;;;27.60;27.00;;;;;;2241945;62;20363;-68
2022/09/05 08:35:28;0.00;0.00;0.62;0.00;0.00;0.62;4.40;4.00;;;27.60;27.00;;;;;;2240770;62;20743;-71
2022/09/05 08:38:14;0.00;0.00;0.62;0.00;0.00;0.62;6.67;5.00;;;27.60;27.10;;;;;;2241580;62;20621;-69
2022/09/05 08:41:07;0.00;0.00;0.62;0.00;0.00;0.62;6.20;4.30;;;27.60;27.20;;;;;;2367974;54;20406;-65
2022/09/05 08:44:01;0.00;0.00;0.62;0.00;0.00;0.62;5.20;4.60;;;27.60;27.20;;;;;;2237103;62;20424;-70
2022/09/05 08:46:51;0.00;0.00;0.62;0.00;0.00;0.62;4.63;4.13;;;27.60;27.10;;;;;;2237913;62;20391;-66
2022/09/05 08:49:54;0.00;0.00;0.62;0.00;0.00;0.62;5.00;4.50;;;27.70;27.20;;;;;;2238678;61;20393;-71
2022/09/05 08:52:53;0.00;0.00;0.62;0.00;0.00;0.62;4.77;4.30;;;27.70;27.20;;;;;;2241486;62;20358;-67
2022/09/05 08:55:46;0.00;0.00;0.62;0.00;0.00;0.62;5.10;4.70;;;27.70;27.30;;;;;;2242276;62;20403;-64
2022/09/05 08:59:01;0.00;0.00;0.62;0.00;0.00;0.62;4.63;4.10;;;27.70;27.30;;;;;;2242110;62;20803;-70
2022/09/05 09:02:03;0.00;0.00;0.62;0.00;0.00;0.62;5.40;4.10;;;27.70;27.30;;;;;;2242417;62;20398;-71
2022/09/05 09:05:06;0.00;0.00;0.62;0.00;0.00;0.62;5.00;4.50;;;27.70;27.40;;;;;;2243901;61;20377;-71
2022/09/05 09:07:56;0.00;0.00;0.62;0.00;0.00;0.62;5.80;4.33;;;27.70;27.40;;;;;;2242189;62;20574;-66
2022/09/05 09:10:52;0.00;0.00;0.62;0.00;0.00;0.62;4.97;4.37;;;27.70;27.40;;;;;;2242029;62;20386;-70
2022/09/05 09:13:51;0.00;0.00;0.62;0.00;0.00;0.62;5.20;4.70;;;27.80;27.50;;;;;;2241987;62;20680;-66
2022/09/05 09:16:44;0.00;0.00;0.62;0.00;0.00;0.62;4.77;4.23;;;27.80;27.40;;;;;;2242330;62;20354;-65
2022/09/05 09:19:47;0.00;0.00;0.62;0.00;0.00;0.62;5.73;4.53;;;27.80;27.50;;;;;;2241329;61;20414;-70
2022/09/05 09:22:40;0.00;0.00;0.62;0.00;0.00;0.62;5.03;4.50;;;27.80;27.60;;;;;;2242152;62;20629;-68
2022/09/05 09:25:31;0.00;0.00;0.62;0.00;0.00;0.62;6.10;4.83;;;27.80;27.50;;;;;;2242208;62;20387;-66
2022/09/05 09:28:55;0.00;0.00;0.62;0.00;0.00;0.62;5.20;4.70;;;27.80;27.70;;;;;;2241860;62;20363;-65
2022/09/05 09:31:57;0.00;0.00;0.62;0.00;0.00;0.62;4.80;4.40;;;27.90;27.50;;;;;;2242308;62;20359;-69
2022/09/05 09:34:55;0.00;0.00;0.62;0.00;0.00;0.62;5.70;5.20;;;27.90;27.50;;;;;;2241628;62;20370;-63
2022/09/05 09:38:15;0.00;0.00;0.62;0.00;0.00;0.62;7.53;5.10;;;27.90;27.80;;;;;;2241997;62;20350;-71
2022/09/05 09:41:42;0.00;0.00;0.62;0.00;0.00;0.62;5.47;4.50;;;27.90;28.10;;;;;;2366168;54;20394;-72
2022/09/05 09:45:08;0.00;0.00;0.62;0.00;0.00;0.62;8.10;5.40;;;27.90;28.40;;;;;;2238026;62;20386;-68
2022/09/05 09:48:23;0.00;0.00;0.62;0.00;0.00;0.62;5.80;5.00;;;27.90;28.50;;;;;;2240232;61;20422;-65
2022/09/05 09:51:31;0.00;0.00;0.62;0.00;0.00;0.62;6.10;5.10;;;27.90;28.40;;;;;;2468870;54;20408;-60
2022/09/05 09:55:19;0.00;0.00;0.62;0.00;0.00;0.62;6.13;5.57;;;27.90;28.50;;;;;;2238482;62;20363;-62
2022/09/05 09:58:43;0.00;0.00;0.62;0.00;0.00;0.62;5.70;4.80;;;27.90;28.60;;;;;;2238089;62;20415;-64
2022/09/05 10:01:39;0.00;0.00;0.62;0.00;0.00;0.62;5.87;4.53;;;28.00;28.50;;;;;;2238258;62;20787;-67
2022/09/05 10:04:49;0.00;0.00;0.62;0.00;0.00;0.62;5.20;4.63;;;28.00;28.50;;;;;;2237655;62;20379;-63
2022/09/05 10:08:09;0.00;0.00;0.62;0.00;0.00;0.62;4.80;4.30;;;28.00;28.40;;;;;;2238042;62;20375;-67
2022/09/05 10:11:17;0.00;0.00;0.62;0.00;0.00;0.62;6.40;5.50;;;28.10;28.30;;;;;;2240813;62;20407;-64
2022/09/05 10:14:52;0.00;0.00;0.62;0.00;0.00;0.62;5.33;4.53;;;28.10;28.40;;;;;;2241902;62;20435;-63
2022/09/05 10:18:32;0.00;0.00;0.62;0.00;0.00;0.62;6.00;5.17;;;28.10;28.40;;;;;;2241857;62;20370;-64
2022/09/05 10:21:46;0.00;0.00;0.62;0.00;0.00;0.62;7.00;4.80;;;28.10;28.30;;;;;;2249100;62;20422;-67
2022/09/05 10:25:06;0.00;0.00;0.62;0.00;0.00;0.62;4.87;4.47;;;28.10;28.30;;;;;;2242295;62;20386;-65
2022/09/05 10:28:26;0.00;0.00;0.62;0.00;0.00;0.62;5.57;4.83;;;28.10;28.90;;;;;;2242146;62;20455;-64
2022/09/05 10:31:16;0.00;0.00;0.62;0.00;0.00;0.62;7.37;4.90;;;28.10;28.50;;;;;;2746409;46;20368;-66
2022/09/05 10:34:16;0.00;0.00;0.62;0.00;0.00;0.62;6.70;4.80;;;28.10;28.60;;;;;;2237582;62;20715;-62
2022/09/05 10:37:07;0.00;0.00;0.62;0.00;0.00;0.62;4.73;4.30;;;28.20;28.70;;;;;;2238026;62;20574;-65
2022/09/05 10:39:56;0.00;0.00;0.62;0.00;0.00;0.62;7.87;4.80;;;28.10;28.50;;;;;;2240130;61;20814;-62
2022/09/05 10:42:46;0.00;0.00;0.62;0.00;0.00;0.62;5.80;5.10;;;28.20;28.80;;;;;;2241738;62;20367;-63
2022/09/05 10:45:44;0.00;0.00;0.62;0.00;0.00;0.62;5.60;4.47;;;28.20;28.90;;;;;;2242236;62;20634;-67
2022/09/05 10:48:47;0.00;0.00;0.62;0.00;0.00;0.62;5.47;4.97;;;28.20;28.90;;;;;;2241300;62;20374;-64
2022/09/05 10:51:40;0.00;0.00;0.62;0.00;0.00;0.62;8.97;4.73;;;28.20;28.80;;;;;;2237925;62;20448;-66
2022/09/05 10:54:47;0.00;0.00;0.62;0.00;0.00;0.62;4.10;3.80;;;28.30;28.80;;;;;;2237664;62;20359;-67
2022/09/05 10:57:40;0.00;0.00;0.62;0.00;0.00;0.62;6.33;5.47;;;28.30;28.70;;;;;;2237393;62;20580;-63
2022/09/05 11:00:56;0.00;0.00;0.62;0.00;0.00;0.62;6.30;4.93;;;28.30;28.70;;;;;;2244558;61;20514;-64
2022/09/05 11:03:50;0.00;0.00;0.62;0.00;0.00;0.62;7.03;5.53;;;28.30;28.80;;;;;;2245308;61;20425;-67
2022/09/05 11:06:52;0.00;0.00;0.62;0.00;0.00;0.62;7.23;5.33;;;28.30;28.80;;;;;;2245932;61;20782;-63
2022/09/05 11:09:58;0.00;0.00;0.62;0.00;0.00;0.62;7.70;4.83;;;28.40;28.90;;;;;;2243301;61;20397;-61
2022/09/05 11:13:03;0.00;0.00;0.62;0.00;0.00;0.62;6.20;5.60;;;28.40;28.80;;;;;;2241490;62;20363;-65
2022/09/05 11:16:08;0.00;0.00;0.62;0.00;0.00;0.62;5.67;4.90;;;28.40;28.80;;;;;;2242029;62;20366;-63
2022/09/05 11:18:58;0.00;0.00;0.62;0.00;0.00;0.62;5.70;4.87;;;28.40;28.80;;;;;;2241381;61;21210;-63
2022/09/05 11:21:57;0.00;0.00;0.62;0.00;0.00;0.62;5.83;5.03;;;28.40;28.70;;;;;;2242056;62;20358;-66
2022/09/05 11:24:49;0.00;0.00;0.62;0.00;0.00;0.62;4.40;4.07;;;28.50;28.70;;;;;;2236902;62;20671;-67
2022/09/05 11:27:39;0.00;0.00;0.62;0.00;0.00;0.62;5.73;4.80;;;28.50;28.60;;;;;;2237886;62;20648;-63
2022/09/05 11:30:32;0.00;0.00;0.62;0.00;0.00;0.62;6.10;5.40;;;28.50;28.60;;;;;;2241206;62;20438;-61
2022/09/05 11:34:06;0.00;0.00;0.62;0.00;0.00;0.62;6.00;4.77;;;28.60;28.60;;;;;;2243769;61;20622;-64
2022/09/05 11:36:57;0.00;0.00;0.62;0.00;0.00;0.62;6.63;5.00;;;28.60;28.50;;;;;;2242000;62;20406;-65
2022/09/05 11:40:58;0.00;0.00;0.62;0.00;0.00;0.62;6.40;5.80;;;28.60;28.60;;;;;;2241021;61;20389;-63
2022/09/05 11:44:23;0.00;0.00;0.62;0.00;0.00;0.62;5.20;4.70;;;28.70;28.60;;;;;;2225172;62;20405;-65
2022/09/05 11:47:47;0.00;0.00;0.62;0.00;0.00;0.62;5.30;4.80;;;28.70;28.70;;;;;;2232070;61;20374;-64
2022/09/05 11:51:22;0.00;0.00;0.62;0.00;0.00;0.62;4.33;3.93;;;28.70;28.70;;;;;;2241787;62;20790;-63
2022/09/05 11:54:54;0.00;0.00;0.62;0.00;0.00;0.62;4.67;4.13;;;28.70;28.60;;;;;;2241200;62;20358;-63
2022/09/05 11:57:53;0.00;0.00;0.62;0.00;0.00;0.62;4.60;4.20;;;28.80;28.60;;;;;;2241647;62;20714;-63
2022/09/05 12:00:44;0.00;0.00;0.62;0.00;0.00;0.62;5.10;4.70;;;28.80;28.70;;;;;;2241693;62;20398;-64
2022/09/05 12:04:07;0.00;0.00;0.62;0.00;0.00;0.62;6.70;5.07;;;28.90;28.70;;;;;;2241576;62;20649;-62
2022/09/05 12:07:10;0.00;0.00;0.62;0.00;0.00;0.62;5.37;4.50;;;28.90;28.70;;;;;;2241897;62;20373;-65
2022/09/05 12:10:14;0.00;0.00;0.62;0.00;0.00;0.62;5.43;5.03;;;28.90;28.60;;;;;;2241002;61;20414;-64